Terminal Aerodrome Forecast
Issued by NWS

Home | Current Version | Previous Version | Text Only | Print | Product List | Glossary On
Versions: 1 2 3 4 5 6 7 8 9 10 11 12 13 14 15 16 17 18 19 20 21 22 23 24 25 26 27 28
000
FTAK31 PANC 300239 AAB
TAFAVD
TAF AMD
PAVD 300239Z 3003/3024 27010KT P6SM -SHRA SCT045 BKN060
     FM300600 VRB04KT P6SM VCSH SCT070 BKN100
     FM301000 VRB03KT P6SM SCT100 BKN150
     FM302000 25007KT P6SM SCT100 SCT150
      AMD LTD TO CLD VIS AND WIND=

USA.gov is the U.S. government's official web portal to all federal, state and local government web resources and services.